createdAt,value
2018-03-21T00:01:11.405Z,20.23
2018-03-21T00:03:41.046Z,70.68
2018-03-21T00:06:10.111Z,34.83
2018-03-21T00:08:38.924Z,54.50
2018-03-21T00:11:09.156Z,45.55
2018-03-21T00:13:38.150Z,46.65
2018-03-21T00:16:07.083Z,51.45
2018-03-21T00:18:36.120Z,51.75
2018-03-21T00:21:04.957Z,45.22
2018-03-21T00:23:33.857Z,24.33
2018-03-21T00:26:02.853Z,22.50
2018-03-21T00:28:31.753Z,68.78
2018-03-21T00:31:00.661Z,35.80
2018-03-21T00:33:29.609Z,33.65
2018-03-21T00:35:58.658Z,40.58
2018-03-21T00:38:27.614Z,44.95
2018-03-21T00:40:57.245Z,39.13
2018-03-21T00:43:26.052Z,32.97
2018-03-21T00:45:55.142Z,25.35
2018-03-21T00:48:24.011Z,17.23
2018-03-21T00:50:52.866Z,22.48
2018-03-21T00:53:22.130Z,19.00
2018-03-21T00:55:51.064Z,15.80
2018-03-21T00:58:19.931Z,15.38
2018-03-21T01:00:49.007Z,19.00
2018-03-21T01:03:17.980Z,20.15
2018-03-21T01:05:47.669Z,27.42
2018-03-21T01:08:17.363Z,16.10
2018-03-21T01:10:46.185Z,18.75
2018-03-21T01:13:14.967Z,26.80
2018-03-21T01:15:43.767Z,23.02
2018-03-21T01:18:12.606Z,21.55
2018-03-21T01:20:42.683Z,20.17
2018-03-21T01:23:11.770Z,41.10
2018-03-21T01:25:40.605Z,25.67
2018-03-21T01:28:09.456Z,28.20
2018-03-21T01:30:38.871Z,42.90
2018-03-21T01:33:07.818Z,64.57
2018-03-21T01:35:36.806Z,160.65
2018-03-21T01:38:06.840Z,102.90
2018-03-21T01:40:36.117Z,143.32
2018-03-21T01:43:04.861Z,143.43
2018-03-21T01:45:33.752Z,123.70
2018-03-21T01:48:02.703Z,142.93
2018-03-21T01:50:31.529Z,121.82
2018-03-21T01:53:10.325Z,80.62
2018-03-21T01:55:39.130Z,42.58
2018-03-21T01:58:07.997Z,42.03
2018-03-21T02:00:36.800Z,63.95
2018-03-21T02:03:05.825Z,89.32
2018-03-21T02:05:34.747Z,82.75
2018-03-21T02:08:03.565Z,59.60
2018-03-21T02:10:32.374Z,47.85
2018-03-21T02:13:01.928Z,42.85
2018-03-21T02:15:31.567Z,45.83
2018-03-21T02:18:00.552Z,50.65
2018-03-21T02:20:29.402Z,53.47
2018-03-21T02:22:58.334Z,65.40
2018-03-21T02:25:27.468Z,77.72
2018-03-21T02:27:56.477Z,88.65
2018-03-21T02:30:25.252Z,104.05
2018-03-21T02:32:54.278Z,61.10
2018-03-21T02:35:23.240Z,63.63
2018-03-21T02:37:52.656Z,48.45
2018-03-21T02:40:21.520Z,41.55
2018-03-21T02:42:50.378Z,34.10
2018-03-21T02:45:19.421Z,35.00
2018-03-21T02:47:49.942Z,29.60
2018-03-21T02:50:18.758Z,38.08
2018-03-21T02:52:47.701Z,40.65
2018-03-21T02:55:16.874Z,26.35
2018-03-21T02:57:45.760Z,29.48
2018-03-21T03:00:14.676Z,27.90
2018-03-21T03:02:44.512Z,18.35
2018-03-21T03:05:13.866Z,24.67
2018-03-21T03:07:42.756Z,19.92
2018-03-21T03:10:12.173Z,38.28
2018-03-21T03:12:41.008Z,103.50
2018-03-21T03:15:09.831Z,42.45
2018-03-21T03:17:38.814Z,29.20
2018-03-21T03:20:08.460Z,24.98
2018-03-21T03:22:37.598Z,22.65
2018-03-21T03:25:06.447Z,28.60
2018-03-21T03:27:35.267Z,17.73
2018-03-21T03:30:04.378Z,24.42
2018-03-21T03:32:33.121Z,37.55
2018-03-21T03:35:01.933Z,37.17
2018-03-21T03:37:31.234Z,32.17
2018-03-21T03:40:00.073Z,37.55
2018-03-21T03:42:29.067Z,35.83
2018-03-21T03:44:58.275Z,29.67
2018-03-21T03:47:27.154Z,19.67
2018-03-21T03:49:56.908Z,15.15
2018-03-21T03:52:25.817Z,18.20
2018-03-21T03:54:55.188Z,21.15
2018-03-21T03:57:23.987Z,27.42
2018-03-21T03:59:53.818Z,26.73
2018-03-21T04:02:23.227Z,21.60
2018-03-21T04:04:52.108Z,31.52
2018-03-21T04:07:20.901Z,21.33
2018-03-21T04:09:49.736Z,30.45
2018-03-21T04:12:19.460Z,26.95
2018-03-21T04:14:48.282Z,25.45
2018-03-21T04:17:18.779Z,18.10
2018-03-21T04:19:47.742Z,21.58
2018-03-21T04:22:17.406Z,28.80
2018-03-21T04:24:46.337Z,29.30
2018-03-21T04:27:15.989Z,20.75
2018-03-21T04:29:46.544Z,35.22
2018-03-21T04:32:15.515Z,38.72
2018-03-21T04:34:44.572Z,54.78
2018-03-21T04:37:13.660Z,89.20
2018-03-21T04:39:42.503Z,67.15
2018-03-21T04:42:11.483Z,81.22
2018-03-21T04:44:40.517Z,146.15
2018-03-21T04:47:09.964Z,90.28
2018-03-21T04:49:38.939Z,43.70
2018-03-21T04:52:08.729Z,32.30
2018-03-21T04:54:37.951Z,46.13
2018-03-21T04:57:08.023Z,19.95
2018-03-21T04:59:37.223Z,15.27
2018-03-21T05:02:06.426Z,33.95
2018-03-21T05:04:35.445Z,34.95
2018-03-21T05:07:04.895Z,27.45
2018-03-21T05:09:33.737Z,31.20
2018-03-21T05:12:02.602Z,22.55
2018-03-21T05:14:31.778Z,29.65
2018-03-21T05:17:00.714Z,59.80
2018-03-21T05:19:29.678Z,52.03
2018-03-21T05:21:58.871Z,40.97
2018-03-21T05:24:27.656Z,34.50
2018-03-21T05:26:56.644Z,29.80
2018-03-21T05:29:25.657Z,20.43
2018-03-21T05:31:55.238Z,40.47
2018-03-21T05:34:24.320Z,50.00
2018-03-21T05:36:53.637Z,50.53
2018-03-21T05:39:22.584Z,50.20
2018-03-21T05:41:52.173Z,24.33
2018-03-21T05:44:21.473Z,38.40
2018-03-21T05:46:50.420Z,58.57
2018-03-21T05:49:19.250Z,40.83
2018-03-21T05:51:48.133Z,35.93
2018-03-21T05:54:17.049Z,34.10
2018-03-21T05:56:45.908Z,36.10
2018-03-21T05:59:14.695Z,40.13
2018-03-21T06:01:43.688Z,30.27
2018-03-21T06:04:12.717Z,33.87
2018-03-21T06:06:41.717Z,46.43
2018-03-21T06:09:10.969Z,65.30
2018-03-21T06:11:39.861Z,37.43
2018-03-21T06:14:08.721Z,37.50
2018-03-21T06:16:37.919Z,24.90
2018-03-21T06:19:08.179Z,37.53
2018-03-21T06:21:36.950Z,76.73
2018-03-21T06:24:05.957Z,35.57
2018-03-21T06:26:35.544Z,43.30
2018-03-21T06:29:04.300Z,27.17
2018-03-21T06:31:34.000Z,40.27
2018-03-21T06:34:03.574Z,43.10
2018-03-21T06:36:32.403Z,63.03
2018-03-21T06:39:01.358Z,40.50
2018-03-21T06:41:30.445Z,29.30
2018-03-21T06:43:59.318Z,36.27
2018-03-21T06:46:28.131Z,32.53
2018-03-21T06:48:57.277Z,49.87
2018-03-21T06:51:26.156Z,27.97
2018-03-21T06:53:55.938Z,40.07
2018-03-21T06:56:24.727Z,44.13
2018-03-21T06:58:53.648Z,61.43
2018-03-21T07:01:23.188Z,36.80
2018-03-21T07:03:52.297Z,17.10
2018-03-21T07:06:21.134Z,27.27
2018-03-21T07:08:50.642Z,22.60
2018-03-21T07:11:19.470Z,37.13
2018-03-21T07:14:00.252Z,27.20
2018-03-21T07:16:41.721Z,41.00
2018-03-21T07:19:11.021Z,33.40
2018-03-21T07:21:40.907Z,39.77
2018-03-21T07:24:09.833Z,33.87
2018-03-21T07:26:38.589Z,28.40
2018-03-21T07:29:07.405Z,20.47
2018-03-21T07:31:37.144Z,24.53
2018-03-21T07:34:06.294Z,23.73
2018-03-21T07:36:35.519Z,30.10
2018-03-21T07:39:04.628Z,24.53
2018-03-21T07:41:33.465Z,38.27
2018-03-21T07:44:02.919Z,68.67
2018-03-21T07:46:31.882Z,19.43
2018-03-21T07:49:00.648Z,26.80
2018-03-21T07:51:29.537Z,21.30
2018-03-21T07:53:58.365Z,51.07
2018-03-21T07:56:27.144Z,29.43
2018-03-21T07:58:56.265Z,18.73
2018-03-21T08:01:25.445Z,39.07
2018-03-21T08:03:54.389Z,21.63
2018-03-21T08:06:23.536Z,14.67
2018-03-21T08:08:52.385Z,18.03
2018-03-21T08:11:21.175Z,22.30
2018-03-21T08:13:50.735Z,21.73
2018-03-21T08:16:19.572Z,22.60
2018-03-21T08:18:48.524Z,39.37
2018-03-21T08:21:17.340Z,19.33
2018-03-21T08:23:46.193Z,20.30
2018-03-21T08:26:16.449Z,73.87
2018-03-21T08:28:46.010Z,133.00
2018-03-21T08:31:14.859Z,16.40
2018-03-21T08:33:43.644Z,14.17
2018-03-21T08:36:12.744Z,22.17
2018-03-21T08:38:41.559Z,22.23
2018-03-21T08:41:10.386Z,21.20
2018-03-21T08:43:39.321Z,40.73
2018-03-21T08:46:09.135Z,24.27
2018-03-21T08:48:37.989Z,23.10
2018-03-21T08:51:07.017Z,21.00
2018-03-21T08:53:36.211Z,41.53
2018-03-21T08:56:05.086Z,23.03
2018-03-21T08:58:34.775Z,5.37
2018-03-21T09:01:03.693Z,14.33
2018-03-21T09:03:32.455Z,19.47
2018-03-21T09:06:02.339Z,9.80
2018-03-21T09:08:31.153Z,26.13
2018-03-21T09:11:00.127Z,27.30
2018-03-21T09:13:29.040Z,16.00
2018-03-21T09:15:57.937Z,10.93
2018-03-21T09:18:26.953Z,13.67
2018-03-21T09:20:56.657Z,9.97
2018-03-21T09:23:26.257Z,13.97
2018-03-21T09:25:55.076Z,11.97
2018-03-21T09:28:23.990Z,7.83
2018-03-21T09:30:52.827Z,18.93
2018-03-21T09:33:22.431Z,17.97
2018-03-21T09:35:51.254Z,37.43
2018-03-21T09:38:20.985Z,16.30
2018-03-21T09:40:50.749Z,17.20
2018-03-21T09:43:19.643Z,12.53
2018-03-21T09:45:48.549Z,22.93
2018-03-21T09:48:17.994Z,23.10
2018-03-21T09:50:46.997Z,15.97
2018-03-21T09:53:16.668Z,11.07
2018-03-21T09:55:45.595Z,9.60
2018-03-21T09:58:15.226Z,12.87
2018-03-21T10:00:44.158Z,9.07
2018-03-21T10:03:13.119Z,11.17
2018-03-21T10:05:42.071Z,10.03
2018-03-21T10:08:10.841Z,9.93
2018-03-21T10:10:39.693Z,12.43
2018-03-21T10:13:09.807Z,12.33
2018-03-21T10:15:38.692Z,12.00
2018-03-21T10:18:08.663Z,13.53
2018-03-21T10:20:37.537Z,7.37
2018-03-21T10:23:06.857Z,13.83
2018-03-21T10:25:35.914Z,11.17
2018-03-21T10:28:04.778Z,12.93
2018-03-21T10:30:37.250Z,12.70
2018-03-21T10:33:06.332Z,10.10
2018-03-21T10:35:35.213Z,12.80
2018-03-21T10:38:04.124Z,6.87
2018-03-21T10:40:32.937Z,13.30
2018-03-21T10:43:02.020Z,19.20
2018-03-21T10:45:31.042Z,10.00
2018-03-21T10:47:59.906Z,17.53
2018-03-21T10:50:29.230Z,10.07
2018-03-21T10:52:58.965Z,9.70
2018-03-21T10:55:27.789Z,35.40
2018-03-21T10:57:56.578Z,24.63
2018-03-21T11:00:25.556Z,30.23
2018-03-21T11:03:00.130Z,15.80
2018-03-21T11:05:30.012Z,16.73
2018-03-21T11:07:59.684Z,17.33
2018-03-21T11:10:28.628Z,9.57
2018-03-21T11:12:57.787Z,25.13
2018-03-21T11:15:26.646Z,11.77
2018-03-21T11:17:55.737Z,10.33
2018-03-21T11:20:24.771Z,11.83
2018-03-21T11:22:53.817Z,51.03
2018-03-21T11:25:22.805Z,73.63
2018-03-21T11:27:51.710Z,31.30
2018-03-21T11:30:20.557Z,10.43
2018-03-21T11:32:49.447Z,21.57
2018-03-21T11:35:19.395Z,23.33
2018-03-21T11:37:48.221Z,12.27
2018-03-21T11:40:17.946Z,17.47
2018-03-21T11:42:46.841Z,11.50
2018-03-21T11:45:16.481Z,16.83
2018-03-21T11:47:46.124Z,11.77
2018-03-21T11:50:14.931Z,9.53
2018-03-21T11:52:43.880Z,17.13
2018-03-21T11:55:12.757Z,7.70
2018-03-21T11:57:42.749Z,14.77
2018-03-21T12:00:11.848Z,15.23
2018-03-21T12:02:40.700Z,7.93
2018-03-21T12:05:09.820Z,8.80
2018-03-21T12:07:38.721Z,29.67
2018-03-21T12:10:07.559Z,24.30
2018-03-21T12:12:37.421Z,23.67
2018-03-21T12:15:06.252Z,20.47
2018-03-21T12:17:35.160Z,18.27
2018-03-21T12:20:04.509Z,32.07
2018-03-21T12:22:33.375Z,35.53
2018-03-21T12:25:03.090Z,16.47
2018-03-21T12:27:32.432Z,20.17
2018-03-21T12:30:02.553Z,6.50
2018-03-21T12:32:31.665Z,12.67
2018-03-21T12:35:00.556Z,32.63
2018-03-21T12:37:29.871Z,22.33
2018-03-21T12:39:58.816Z,14.50
2018-03-21T12:42:28.474Z,19.40
2018-03-21T12:44:58.469Z,16.07
2018-03-21T12:47:28.334Z,14.73
2018-03-21T12:49:57.272Z,12.47
2018-03-21T12:52:26.903Z,19.67
2018-03-21T12:54:56.573Z,12.50
2018-03-21T12:57:26.376Z,18.37
2018-03-21T12:59:56.008Z,17.23
2018-03-21T13:02:25.752Z,17.87
2018-03-21T13:04:54.991Z,14.27
2018-03-21T13:07:24.807Z,36.63
2018-03-21T13:09:53.993Z,16.07
2018-03-21T13:12:22.960Z,14.53
2018-03-21T13:14:52.768Z,10.37
2018-03-21T13:17:21.565Z,11.73
2018-03-21T13:19:50.506Z,12.60
2018-03-21T13:22:20.189Z,20.50
2018-03-21T13:24:49.006Z,13.40
2018-03-21T13:27:18.659Z,12.20
2018-03-21T13:29:47.535Z,8.27
2018-03-21T13:32:16.393Z,10.47
2018-03-21T13:34:45.294Z,15.03
2018-03-21T13:37:15.183Z,15.47
2018-03-21T13:39:44.305Z,11.00
2018-03-21T13:42:14.067Z,14.07
2018-03-21T13:44:43.440Z,14.63
2018-03-21T13:47:12.518Z,13.97
2018-03-21T13:49:41.632Z,14.77
2018-03-21T13:52:10.580Z,9.87
2018-03-21T13:54:39.476Z,11.27
2018-03-21T13:57:09.158Z,16.50
2018-03-21T13:59:38.749Z,11.53
2018-03-21T14:02:08.149Z,14.30
2018-03-21T14:04:37.403Z,9.27
2018-03-21T14:07:06.448Z,7.17
2018-03-21T14:09:35.544Z,9.13
2018-03-21T14:12:04.683Z,11.47
2018-03-21T14:14:34.456Z,22.80
2018-03-21T14:17:03.453Z,14.80
2018-03-21T14:19:32.475Z,18.27
2018-03-21T14:22:01.631Z,19.77
2018-03-21T14:24:32.010Z,12.37
2018-03-21T14:27:01.111Z,23.17
2018-03-21T14:29:30.356Z,15.83
2018-03-21T14:31:59.460Z,15.30
2018-03-21T14:34:29.925Z,20.03
2018-03-21T14:36:59.023Z,15.00
2018-03-21T14:39:29.727Z,14.80
2018-03-21T14:42:00.521Z,11.87
2018-03-21T14:44:30.374Z,13.73
2018-03-21T14:46:59.297Z,9.87
2018-03-21T14:49:28.329Z,14.20
2018-03-21T14:51:57.496Z,12.67
2018-03-21T14:54:27.371Z,13.57
2018-03-21T14:56:56.539Z,18.57
2018-03-21T14:59:26.003Z,14.73
2018-03-21T15:01:54.995Z,16.83
2018-03-21T15:04:23.968Z,14.23
2018-03-21T15:06:53.659Z,31.63
2018-03-21T15:09:22.673Z,16.70
2018-03-21T15:11:52.102Z,18.27
2018-03-21T15:14:21.091Z,15.00
2018-03-21T15:16:50.427Z,19.90
2018-03-21T15:19:19.339Z,19.13
2018-03-21T15:21:48.479Z,18.20
2018-03-21T15:24:17.421Z,19.67
2018-03-21T15:26:46.310Z,24.03
2018-03-21T15:29:15.755Z,16.53
2018-03-21T15:31:44.816Z,19.80
2018-03-21T15:34:13.691Z,14.80
2018-03-21T15:36:42.734Z,14.50
2018-03-21T15:39:11.614Z,11.27
2018-03-21T15:41:40.599Z,19.83
2018-03-21T15:44:09.534Z,26.37
2018-03-21T15:46:39.252Z,20.43
2018-03-21T15:49:08.389Z,18.00
2018-03-21T15:51:38.086Z,19.43
2018-03-21T15:54:07.408Z,28.00
2018-03-21T15:56:36.447Z,26.17
2018-03-21T15:59:05.511Z,35.33
2018-03-21T16:01:34.487Z,23.77
2018-03-21T16:04:04.203Z,29.53
2018-03-21T16:06:33.154Z,24.57
2018-03-21T16:09:02.220Z,25.40
2018-03-21T16:11:31.323Z,29.90
2018-03-21T16:14:00.717Z,21.90
2018-03-21T16:16:29.828Z,20.80
2018-03-21T16:18:58.641Z,26.30
2018-03-21T16:21:27.511Z,20.40
2018-03-21T16:23:56.583Z,31.37
2018-03-21T16:26:25.436Z,32.07
2018-03-21T16:28:55.172Z,24.87
2018-03-21T16:31:24.429Z,27.93
2018-03-21T16:33:54.368Z,24.00
2018-03-21T16:36:23.199Z,22.90
2018-03-21T16:38:52.264Z,20.00
2018-03-21T16:41:21.383Z,19.03
2018-03-21T16:43:50.659Z,34.50
2018-03-21T16:46:20.410Z,37.13
2018-03-21T16:48:50.369Z,22.73
2018-03-21T16:51:20.522Z,21.43
2018-03-21T16:53:49.445Z,20.40
2018-03-21T16:56:18.394Z,22.60
2018-03-21T16:58:48.397Z,20.13
2018-03-21T17:01:17.425Z,21.53
2018-03-21T17:03:46.681Z,20.53
2018-03-21T17:06:15.829Z,14.93
2018-03-21T17:08:44.845Z,17.63
2018-03-21T17:11:13.726Z,18.43
2018-03-21T17:13:42.849Z,18.27
2018-03-21T17:16:11.744Z,14.10
2018-03-21T17:18:40.595Z,15.43
2018-03-21T17:21:09.591Z,10.93
2018-03-21T17:23:38.672Z,32.93
2018-03-21T17:26:07.821Z,20.63
2018-03-21T17:28:36.685Z,13.33
2018-03-21T17:31:05.542Z,22.07
2018-03-21T17:33:35.279Z,20.63
2018-03-21T17:36:04.160Z,29.53
2018-03-21T17:38:33.786Z,19.73
2018-03-21T17:41:02.727Z,19.90
2018-03-21T17:43:32.538Z,18.03
2018-03-21T17:46:01.380Z,26.27
2018-03-21T17:48:30.369Z,23.33
2018-03-21T17:50:59.228Z,20.80
2018-03-21T17:53:28.986Z,24.50
2018-03-21T17:55:58.192Z,32.97
2018-03-21T17:58:27.017Z,31.50
2018-03-21T18:00:56.691Z,34.83
2018-03-21T18:03:25.801Z,44.43
2018-03-21T18:05:54.792Z,44.00
2018-03-21T18:08:24.729Z,34.90
2018-03-21T18:10:55.005Z,28.87
2018-03-21T18:13:24.146Z,23.00
2018-03-21T18:15:53.902Z,25.20
2018-03-21T18:18:23.232Z,26.40
2018-03-21T18:20:52.408Z,21.33
2018-03-21T18:23:21.223Z,26.63
2018-03-21T18:25:50.132Z,19.43
2018-03-21T18:28:19.274Z,25.67
2018-03-21T18:30:48.712Z,21.13
2018-03-21T18:33:17.726Z,21.80
2018-03-21T18:35:47.037Z,24.87
2018-03-21T18:38:16.032Z,28.33
2018-03-21T18:40:46.610Z,24.60
2018-03-21T18:43:15.652Z,49.30
2018-03-21T18:45:44.951Z,50.73
2018-03-21T18:48:14.955Z,46.53
2018-03-21T18:50:45.191Z,38.37
2018-03-21T18:53:14.430Z,48.50
2018-03-21T18:55:43.628Z,29.47
2018-03-21T18:58:14.728Z,37.23
2018-03-21T19:00:43.911Z,24.70
2018-03-21T19:03:13.285Z,18.13
2018-03-21T19:05:42.390Z,20.40
2018-03-21T19:08:11.343Z,22.67
2018-03-21T19:10:40.346Z,17.87
2018-03-21T19:13:09.633Z,26.17
2018-03-21T19:15:38.617Z,23.80
2018-03-21T19:18:07.700Z,18.93
2018-03-21T19:20:36.720Z,23.30
2018-03-21T19:23:05.921Z,19.03
2018-03-21T19:25:34.952Z,21.40
2018-03-21T19:28:04.727Z,24.77
2018-03-21T19:30:33.705Z,21.27
2018-03-21T19:33:02.768Z,20.20
2018-03-21T19:35:31.674Z,18.33
2018-03-21T19:38:01.294Z,18.97
2018-03-21T19:40:31.879Z,21.70
2018-03-21T19:43:01.600Z,23.37
2018-03-21T19:45:30.737Z,28.23
2018-03-21T19:47:59.773Z,31.40
2018-03-21T19:50:29.471Z,28.33
2018-03-21T19:52:58.777Z,29.97
2018-03-21T19:55:27.720Z,33.73
2018-03-21T19:57:57.324Z,25.30
2018-03-21T20:00:26.359Z,27.20
2018-03-21T20:02:55.300Z,29.23
2018-03-21T20:05:24.835Z,27.77
2018-03-21T20:07:53.690Z,27.77
2018-03-21T20:10:22.744Z,26.70
2018-03-21T20:12:52.017Z,21.90
2018-03-21T20:15:20.886Z,26.53
2018-03-21T20:17:50.425Z,21.40
2018-03-21T20:20:19.375Z,23.50
2018-03-21T20:22:53.013Z,29.20
2018-03-21T20:25:22.674Z,28.33
2018-03-21T20:27:56.920Z,34.20
2018-03-21T20:30:30.253Z,28.57
2018-03-21T20:33:02.240Z,21.63
2018-03-21T20:35:39.911Z,30.77
2018-03-21T20:38:15.276Z,20.07
2018-03-21T20:40:45.780Z,14.33
2018-03-21T20:43:16.627Z,17.13
2018-03-21T20:45:46.667Z,21.43
2018-03-21T20:48:15.682Z,19.03
2018-03-21T20:50:46.941Z,20.80
2018-03-21T20:53:16.621Z,21.97
2018-03-21T20:55:48.621Z,21.13
2018-03-21T20:58:21.434Z,24.63
2018-03-21T21:00:51.810Z,30.70
2018-03-21T21:03:21.338Z,36.97
2018-03-21T21:05:52.657Z,30.17
2018-03-21T21:08:22.631Z,46.53
2018-03-21T21:10:58.187Z,45.23
2018-03-21T21:13:32.049Z,33.37
2018-03-21T21:16:05.555Z,25.77
2018-03-21T21:18:39.680Z,33.07
2018-03-21T21:21:12.570Z,26.40
2018-03-21T21:23:43.679Z,28.07
2018-03-21T21:26:12.604Z,31.93
2018-03-21T21:28:41.693Z,34.13
2018-03-21T21:31:10.618Z,34.77
2018-03-21T21:33:39.555Z,35.63
2018-03-21T21:36:09.188Z,30.90
2018-03-21T21:38:39.349Z,34.30
2018-03-21T21:41:08.972Z,27.73
2018-03-21T21:43:38.557Z,26.13
2018-03-21T21:46:07.509Z,29.37
2018-03-21T21:48:36.423Z,24.80
2018-03-21T21:51:05.366Z,33.93
2018-03-21T21:53:35.012Z,34.73
2018-03-21T21:56:03.833Z,30.13
2018-03-21T21:58:32.871Z,31.37
2018-03-21T22:01:01.727Z,32.33
2018-03-21T22:03:30.933Z,29.60
2018-03-21T22:06:00.550Z,37.33
2018-03-21T22:08:29.595Z,35.60
2018-03-21T22:10:58.523Z,33.07
2018-03-21T22:13:28.146Z,32.07
2018-03-21T22:15:56.948Z,33.30
2018-03-21T22:18:26.799Z,44.23
2018-03-21T22:20:55.603Z,75.50
2018-03-21T22:23:24.595Z,75.13
2018-03-21T22:25:53.377Z,51.77
2018-03-21T22:28:22.196Z,49.83
2018-03-21T22:30:51.134Z,52.47
2018-03-21T22:33:20.823Z,63.90
2018-03-21T22:35:50.620Z,69.57
2018-03-21T22:38:19.485Z,68.37
2018-03-21T22:40:48.318Z,82.83
2018-03-21T22:43:18.154Z,60.97
2018-03-21T22:45:46.992Z,40.13
2018-03-21T22:48:16.609Z,37.73
2018-03-21T22:50:45.360Z,28.13
2018-03-21T22:53:15.151Z,44.27
2018-03-21T22:55:44.876Z,38.53
2018-03-21T22:58:13.703Z,34.20
2018-03-21T23:00:42.672Z,33.47
2018-03-21T23:03:12.307Z,31.30
2018-03-21T23:05:41.436Z,30.80
2018-03-21T23:08:10.344Z,32.50
2018-03-21T23:10:39.257Z,31.83
2018-03-21T23:13:08.150Z,28.63
2018-03-21T23:15:37.070Z,27.20
2018-03-21T23:18:05.850Z,26.63
2018-03-21T23:20:35.700Z,29.03
2018-03-21T23:23:04.549Z,17.63
2018-03-21T23:25:34.166Z,20.77
2018-03-21T23:28:03.800Z,29.50
2018-03-21T23:30:32.641Z,27.40
2018-03-21T23:33:01.520Z,24.93
2018-03-21T23:35:30.698Z,52.33
2018-03-21T23:37:59.766Z,36.03
2018-03-21T23:40:28.596Z,32.33
2018-03-21T23:42:57.554Z,37.10
2018-03-21T23:45:26.565Z,30.80
2018-03-21T23:47:55.380Z,25.27
2018-03-21T23:50:24.123Z,29.23
2018-03-21T23:52:53.246Z,29.23
2018-03-21T23:55:21.992Z,31.33
2018-03-21T23:57:50.898Z,26.10
